sensor_id;sensor_type;location;lat;lon;timestamp;P1;durP1;ratioP1;P2;durP2;ratioP2
35757;SDS011;21879;50.110;18.900;2023-05-14T00:05:21;10.90;;;8.50;;
35757;SDS011;21879;50.110;18.900;2023-05-14T00:15:48;11.10;;;8.80;;
35757;SDS011;21879;50.110;18.900;2023-05-14T00:26:14;16.40;;;11.10;;
35757;SDS011;21879;50.110;18.900;2023-05-14T00:36:40;13.10;;;9.80;;
35757;SDS011;21879;50.110;18.900;2023-05-14T00:47:06;11.40;;;8.60;;
35757;SDS011;21879;50.110;18.900;2023-05-14T00:57:32;11.90;;;8.70;;
35757;SDS011;21879;50.110;18.900;2023-05-14T01:08:01;10.50;;;9.40;;
35757;SDS011;21879;50.110;18.900;2023-05-14T01:18:32;13.30;;;9.90;;
35757;SDS011;21879;50.110;18.900;2023-05-14T01:29:01;12.00;;;9.50;;
35757;SDS011;21879;50.110;18.900;2023-05-14T01:39:32;12.00;;;9.50;;
35757;SDS011;21879;50.110;18.900;2023-05-14T01:50:00;14.60;;;9.40;;
35757;SDS011;21879;50.110;18.900;2023-05-14T02:00:26;17.30;;;10.20;;
35757;SDS011;21879;50.110;18.900;2023-05-14T02:10:52;12.10;;;9.30;;
35757;SDS011;21879;50.110;18.900;2023-05-14T02:21:17;11.30;;;9.30;;
35757;SDS011;21879;50.110;18.900;2023-05-14T02:31:43;12.30;;;9.70;;
35757;SDS011;21879;50.110;18.900;2023-05-14T02:42:10;14.10;;;10.80;;
35757;SDS011;21879;50.110;18.900;2023-05-14T02:52:35;13.50;;;10.70;;
35757;SDS011;21879;50.110;18.900;2023-05-14T03:03:02;13.50;;;10.50;;
35757;SDS011;21879;50.110;18.900;2023-05-14T03:13:27;13.90;;;10.50;;
35757;SDS011;21879;50.110;18.900;2023-05-14T03:23:53;15.90;;;9.80;;
35757;SDS011;21879;50.110;18.900;2023-05-14T03:34:19;12.50;;;9.00;;
35757;SDS011;21879;50.110;18.900;2023-05-14T03:44:45;14.40;;;10.10;;
35757;SDS011;21879;50.110;18.900;2023-05-14T03:55:11;12.60;;;9.60;;
35757;SDS011;21879;50.110;18.900;2023-05-14T04:05:37;13.70;;;11.50;;
35757;SDS011;21879;50.110;18.900;2023-05-14T04:16:03;15.80;;;13.30;;
35757;SDS011;21879;50.110;18.900;2023-05-14T04:26:30;17.50;;;12.80;;
35757;SDS011;21879;50.110;18.900;2023-05-14T04:36:55;13.80;;;11.50;;
35757;SDS011;21879;50.110;18.900;2023-05-14T04:47:21;13.50;;;10.80;;
35757;SDS011;21879;50.110;18.900;2023-05-14T04:57:48;16.80;;;12.10;;
35757;SDS011;21879;50.110;18.900;2023-05-14T05:08:14;17.50;;;13.10;;
35757;SDS011;21879;50.110;18.900;2023-05-14T05:18:40;16.00;;;11.30;;
35757;SDS011;21879;50.110;18.900;2023-05-14T05:29:06;12.20;;;10.90;;
35757;SDS011;21879;50.110;18.900;2023-05-14T05:39:50;16.00;;;11.40;;
35757;SDS011;21879;50.110;18.900;2023-05-14T05:50:16;14.30;;;9.70;;
35757;SDS011;21879;50.110;18.900;2023-05-14T06:00:43;11.70;;;9.70;;
35757;SDS011;21879;50.110;18.900;2023-05-14T06:11:10;13.10;;;11.30;;
35757;SDS011;21879;50.110;18.900;2023-05-14T06:21:35;12.20;;;10.70;;
35757;SDS011;21879;50.110;18.900;2023-05-14T06:32:01;10.20;;;8.90;;
35757;SDS011;21879;50.110;18.900;2023-05-14T06:42:28;13.00;;;10.00;;
35757;SDS011;21879;50.110;18.900;2023-05-14T06:52:53;11.60;;;9.80;;
35757;SDS011;21879;50.110;18.900;2023-05-14T07:03:37;11.90;;;8.90;;
35757;SDS011;21879;50.110;18.900;2023-05-14T07:14:03;10.10;;;8.70;;
35757;SDS011;21879;50.110;18.900;2023-05-14T07:24:29;10.20;;;8.00;;
35757;SDS011;21879;50.110;18.900;2023-05-14T07:34:55;9.90;;;7.40;;
35757;SDS011;21879;50.110;18.900;2023-05-14T07:45:21;9.70;;;6.60;;
35757;SDS011;21879;50.110;18.900;2023-05-14T07:55:47;8.60;;;6.80;;
35757;SDS011;21879;50.110;18.900;2023-05-14T08:06:13;6.60;;;5.80;;
35757;SDS011;21879;50.110;18.900;2023-05-14T08:16:39;12.90;;;8.10;;
35757;SDS011;21879;50.110;18.900;2023-05-14T08:27:05;8.90;;;6.30;;
35757;SDS011;21879;50.110;18.900;2023-05-14T08:37:31;7.70;;;6.80;;
35757;SDS011;21879;50.110;18.900;2023-05-14T08:47:57;8.80;;;6.90;;
35757;SDS011;21879;50.110;18.900;2023-05-14T08:58:25;9.60;;;7.20;;
35757;SDS011;21879;50.110;18.900;2023-05-14T09:08:51;7.70;;;6.90;;
35757;SDS011;21879;50.110;18.900;2023-05-14T09:19:18;8.00;;;6.40;;
35757;SDS011;21879;50.110;18.900;2023-05-14T09:29:46;6.40;;;5.80;;
35757;SDS011;21879;50.110;18.900;2023-05-14T09:40:13;6.50;;;5.50;;
35757;SDS011;21879;50.110;18.900;2023-05-14T09:50:42;6.00;;;4.90;;
35757;SDS011;21879;50.110;18.900;2023-05-14T10:01:09;6.80;;;5.30;;
35757;SDS011;21879;50.110;18.900;2023-05-14T10:11:37;5.50;;;4.70;;
35757;SDS011;21879;50.110;18.900;2023-05-14T10:22:09;6.50;;;4.50;;
35757;SDS011;21879;50.110;18.900;2023-05-14T10:32:38;6.30;;;4.50;;
35757;SDS011;21879;50.110;18.900;2023-05-14T10:43:06;7.00;;;5.20;;
35757;SDS011;21879;50.110;18.900;2023-05-14T10:53:34;5.00;;;4.50;;
35757;SDS011;21879;50.110;18.900;2023-05-14T11:04:01;4.10;;;3.70;;
35757;SDS011;21879;50.110;18.900;2023-05-14T11:14:28;4.50;;;3.30;;
35757;SDS011;21879;50.110;18.900;2023-05-14T11:24:54;3.60;;;2.20;;
35757;SDS011;21879;50.110;18.900;2023-05-14T11:35:29;3.10;;;2.50;;
35757;SDS011;21879;50.110;18.900;2023-05-14T11:45:55;4.00;;;3.40;;
35757;SDS011;21879;50.110;18.900;2023-05-14T11:56:21;4.70;;;3.20;;
35757;SDS011;21879;50.110;18.900;2023-05-14T12:06:48;3.20;;;2.70;;
35757;SDS011;21879;50.110;18.900;2023-05-14T12:17:15;4.00;;;3.20;;
35757;SDS011;21879;50.110;18.900;2023-05-14T12:27:43;6.20;;;4.00;;
35757;SDS011;21879;50.110;18.900;2023-05-14T12:38:09;3.70;;;2.00;;
35757;SDS011;21879;50.110;18.900;2023-05-14T12:48:35;4.20;;;2.80;;
35757;SDS011;21879;50.110;18.900;2023-05-14T12:59:01;4.00;;;3.50;;
35757;SDS011;21879;50.110;18.900;2023-05-14T13:09:27;2.00;;;1.60;;
35757;SDS011;21879;50.110;18.900;2023-05-14T13:19:53;1.90;;;1.60;;
35757;SDS011;21879;50.110;18.900;2023-05-14T13:30:19;2.60;;;1.90;;
35757;SDS011;21879;50.110;18.900;2023-05-14T13:40:45;2.50;;;1.90;;
35757;SDS011;21879;50.110;18.900;2023-05-14T13:51:11;2.20;;;2.00;;
35757;SDS011;21879;50.110;18.900;2023-05-14T14:01:37;2.10;;;1.80;;
35757;SDS011;21879;50.110;18.900;2023-05-14T14:12:06;2.40;;;1.70;;
35757;SDS011;21879;50.110;18.900;2023-05-14T14:22:32;2.10;;;1.90;;
35757;SDS011;21879;50.110;18.900;2023-05-14T14:32:58;2.10;;;1.60;;
35757;SDS011;21879;50.110;18.900;2023-05-14T14:43:25;3.00;;;2.20;;
35757;SDS011;21879;50.110;18.900;2023-05-14T14:53:51;2.70;;;2.10;;
35757;SDS011;21879;50.110;18.900;2023-05-14T15:04:17;2.20;;;1.80;;
35757;SDS011;21879;50.110;18.900;2023-05-14T15:14:43;3.30;;;2.10;;
35757;SDS011;21879;50.110;18.900;2023-05-14T15:25:09;2.80;;;1.80;;
35757;SDS011;21879;50.110;18.900;2023-05-14T15:35:35;2.80;;;1.80;;
35757;SDS011;21879;50.110;18.900;2023-05-14T15:46:01;3.20;;;2.00;;
35757;SDS011;21879;50.110;18.900;2023-05-14T15:56:27;1.60;;;1.40;;
35757;SDS011;21879;50.110;18.900;2023-05-14T16:07:10;2.10;;;1.60;;
35757;SDS011;21879;50.110;18.900;2023-05-14T16:17:36;3.10;;;1.90;;
35757;SDS011;21879;50.110;18.900;2023-05-14T16:28:03;2.80;;;1.90;;
35757;SDS011;21879;50.110;18.900;2023-05-14T16:38:29;3.70;;;2.10;;
35757;SDS011;21879;50.110;18.900;2023-05-14T16:48:56;4.30;;;2.80;;
35757;SDS011;21879;50.110;18.900;2023-05-14T16:59:22;2.40;;;1.70;;
35757;SDS011;21879;50.110;18.900;2023-05-14T17:09:48;4.10;;;1.90;;
35757;SDS011;21879;50.110;18.900;2023-05-14T17:20:14;3.80;;;2.10;;
35757;SDS011;21879;50.110;18.900;2023-05-14T17:30:39;4.30;;;3.40;;
35757;SDS011;21879;50.110;18.900;2023-05-14T17:41:05;9.10;;;6.70;;
35757;SDS011;21879;50.110;18.900;2023-05-14T17:51:31;9.10;;;6.20;;
35757;SDS011;21879;50.110;18.900;2023-05-14T18:01:57;9.30;;;4.60;;
35757;SDS011;21879;50.110;18.900;2023-05-14T18:12:23;8.60;;;5.80;;
35757;SDS011;21879;50.110;18.900;2023-05-14T18:22:49;8.30;;;6.50;;
35757;SDS011;21879;50.110;18.900;2023-05-14T18:33:15;10.40;;;7.40;;
35757;SDS011;21879;50.110;18.900;2023-05-14T18:43:40;8.70;;;6.30;;
35757;SDS011;21879;50.110;18.900;2023-05-14T18:54:06;9.30;;;7.50;;
35757;SDS011;21879;50.110;18.900;2023-05-14T19:04:32;10.20;;;7.80;;
35757;SDS011;21879;50.110;18.900;2023-05-14T19:15:15;11.20;;;8.40;;
35757;SDS011;21879;50.110;18.900;2023-05-14T19:25:41;9.20;;;7.30;;
35757;SDS011;21879;50.110;18.900;2023-05-14T19:36:07;12.30;;;8.30;;
35757;SDS011;21879;50.110;18.900;2023-05-14T19:46:33;10.10;;;7.70;;
35757;SDS011;21879;50.110;18.900;2023-05-14T19:57:00;12.10;;;9.20;;
35757;SDS011;21879;50.110;18.900;2023-05-14T20:07:26;12.70;;;10.00;;
35757;SDS011;21879;50.110;18.900;2023-05-14T20:17:52;13.40;;;9.50;;
35757;SDS011;21879;50.110;18.900;2023-05-14T20:28:17;17.80;;;13.40;;
35757;SDS011;21879;50.110;18.900;2023-05-14T20:38:43;10.90;;;8.00;;
35757;SDS011;21879;50.110;18.900;2023-05-14T20:49:09;10.30;;;7.70;;
35757;SDS011;21879;50.110;18.900;2023-05-14T20:59:35;9.00;;;6.20;;
35757;SDS011;21879;50.110;18.900;2023-05-14T21:10:01;7.70;;;6.10;;
35757;SDS011;21879;50.110;18.900;2023-05-14T21:20:28;8.80;;;6.40;;
35757;SDS011;21879;50.110;18.900;2023-05-14T21:30:54;7.80;;;6.50;;
35757;SDS011;21879;50.110;18.900;2023-05-14T21:41:19;9.90;;;7.00;;
35757;SDS011;21879;50.110;18.900;2023-05-14T21:51:44;7.80;;;6.60;;
35757;SDS011;21879;50.110;18.900;2023-05-14T22:02:14;10.60;;;7.20;;
35757;SDS011;21879;50.110;18.900;2023-05-14T22:12:41;13.50;;;7.90;;
35757;SDS011;21879;50.110;18.900;2023-05-14T22:23:08;13.00;;;8.50;;
35757;SDS011;21879;50.110;18.900;2023-05-14T22:33:34;11.50;;;8.70;;
35757;SDS011;21879;50.110;18.900;2023-05-14T22:43:59;9.80;;;7.80;;
35757;SDS011;21879;50.110;18.900;2023-05-14T22:54:25;11.10;;;7.60;;
35757;SDS011;21879;50.110;18.900;2023-05-14T23:04:51;8.50;;;6.70;;
35757;SDS011;21879;50.110;18.900;2023-05-14T23:15:17;9.70;;;6.70;;
35757;SDS011;21879;50.110;18.900;2023-05-14T23:25:43;9.10;;;7.00;;
35757;SDS011;21879;50.110;18.900;2023-05-14T23:36:12;8.90;;;6.50;;
35757;SDS011;21879;50.110;18.900;2023-05-14T23:46:38;13.00;;;8.80;;
35757;SDS011;21879;50.110;18.900;2023-05-14T23:57:05;9.20;;;7.00;;
